Time;durP1;ratioP1;P1;durP2;ratioP2;P2;SDS_P1;SDS_P2;PMS_P1;PMS_P2;Temp;Humidity;BMP_temperature;BMP_pressure;BME280_temperature;BME280_humidity;BME280_pressure;Samples;Min_cycle;Max_cycle;Signal;HPM_P1;HPM_P2
2021/09/16 00:01:21;;;;;;;1.75;0.00;;;14.30;99.90;;;;;;5119317;28;19911;-89
2021/09/16 00:03:46;;;;;;;2.47;0.00;;;14.40;99.90;;;;;;5101307;28;20016;-87
2021/09/16 00:06:12;;;;;;;0.85;0.00;;;14.40;99.90;;;;;;5119130;28;20031;-88
2021/09/16 00:08:38;;;;;;;0.75;0.00;;;16.20;99.90;;;;;;5118302;28;20027;-87
2021/09/16 00:11:03;;;;;;;2.97;0.10;;;15.30;99.90;;;;;;5099392;28;20502;-87
2021/09/16 00:13:29;;;;;;;5.20;0.00;;;15.20;99.90;;;;;;5098871;28;20032;-87
2021/09/16 00:15:55;;;;;;;1.75;0.00;;;14.40;99.90;;;;;;5117081;28;20031;-87
2021/09/16 00:18:22;;;;;;;2.00;0.00;;;12.30;99.90;;;;;;5101730;28;20020;-87
2021/09/16 00:20:48;;;;;;;0.40;0.00;;;16.50;99.90;;;;;;5101573;28;20028;-88
2021/09/16 00:23:13;;;;;;;0.22;0.00;;;15.00;99.90;;;;;;5118543;28;20019;-88
2021/09/16 00:25:40;;;;;;;2.30;0.00;;;16.00;99.90;;;;;;5118716;28;20062;-88
2021/09/16 00:28:05;;;;;;;3.03;0.28;;;14.20;99.90;;;;;;5100726;28;20019;-88
2021/09/16 00:30:31;;;;;;;5.55;0.00;;;13.90;99.90;;;;;;5118781;28;20024;-88
2021/09/16 00:32:57;;;;;;;2.85;0.20;;;14.00;99.90;;;;;;5100727;28;20048;-87
2021/09/16 00:35:22;;;;;;;0.57;0.00;;;14.00;99.90;;;;;;5100623;28;20027;-87
2021/09/16 00:37:48;;;;;;;2.13;0.00;;;13.90;99.90;;;;;;5100584;28;20016;-87
2021/09/16 00:40:14;;;;;;;0.28;0.03;;;16.10;99.90;;;;;;5099929;28;20032;-87
2021/09/16 00:42:40;;;;;;;1.35;0.00;;;14.80;99.90;;;;;;5100575;28;20026;-87
2021/09/16 00:45:06;;;;;;;3.03;0.05;;;13.90;99.90;;;;;;5100128;28;20012;-87
2021/09/16 00:47:32;;;;;;;1.58;0.00;;;13.80;99.90;;;;;;5100226;28;20087;-87
2021/09/16 00:49:57;;;;;;;0.52;0.00;;;13.90;99.90;;;;;;5100175;28;20058;-87
2021/09/16 00:52:24;;;;;;;1.50;0.47;;;14.60;99.90;;;;;;5100585;28;20020;-87
2021/09/16 00:54:54;;;;;;;1.23;0.05;;;16.90;99.90;;;;;;5100370;28;20020;-87
2021/09/16 00:57:21;;;;;;;2.13;0.00;;;15.70;99.90;;;;;;5099967;28;20118;-88
2021/09/16 00:59:48;;;;;;;2.60;0.15;;;12.20;99.90;;;;;;5099686;28;20028;-87
2021/09/16 01:02:14;;;;;;;0.85;0.00;;;15.70;99.90;;;;;;5099416;28;20088;-87
2021/09/16 01:04:40;;;;;;;2.05;0.00;;;15.10;99.90;;;;;;5099852;28;20057;-87
2021/09/16 01:07:08;;;;;;;1.20;0.00;;;12.50;99.90;;;;;;5099343;28;20024;-87
2021/09/16 01:09:35;;;;;;;1.83;0.10;;;14.00;99.90;;;;;;5099665;28;20020;-87
2021/09/16 01:12:00;;;;;;;7.00;0.20;;;14.00;99.90;;;;;;5099299;28;20012;-88
2021/09/16 01:14:28;;;;;;;0.90;0.00;;;15.00;99.90;;;;;;5119187;28;20499;-88
2021/09/16 01:16:54;;;;;;;1.85;0.00;;;15.50;99.90;;;;;;5116776;28;20472;-88
2021/09/16 01:19:21;;;;;;;3.45;0.00;;;15.60;99.90;;;;;;5098808;28;20039;-88
2021/09/16 01:21:47;;;;;;;2.88;0.08;;;13.80;99.90;;;;;;5098650;28;20019;-88
2021/09/16 01:24:13;;;;;;;0.10;0.00;;;15.60;99.90;;;;;;5099107;28;20439;-87
2021/09/16 01:26:43;;;;;;;0.00;0.00;;;13.90;99.90;;;;;;5098794;28;20033;-89
2021/09/16 01:29:08;;;;;;;2.08;0.45;;;14.10;99.90;;;;;;5117267;28;20520;-89
2021/09/16 01:31:37;;;;;;;3.72;0.10;;;13.70;99.90;;;;;;5117174;28;20023;-89
2021/09/16 01:34:05;;;;;;;2.65;0.13;;;13.60;99.90;;;;;;5098615;28;20032;-88
2021/09/16 01:36:31;;;;;;;1.02;0.00;;;14.00;99.90;;;;;;5098867;28;20430;-89
2021/09/16 01:38:57;;;;;;;2.28;0.00;;;14.70;99.90;;;;;;5116994;28;20409;-88
2021/09/16 01:41:23;;;;;;;2.42;0.00;;;17.30;99.90;;;;;;5098641;28;20518;-87
2021/09/16 01:43:48;;;;;;;2.45;0.00;;;15.20;99.90;;;;;;5099177;28;20369;-89
2021/09/16 01:46:14;;;;;;;2.20;0.00;;;13.80;99.90;;;;;;5098612;28;20027;-89
2021/09/16 01:48:40;;;;;;;0.55;0.00;;;14.00;99.90;;;;;;5098358;28;20020;-89
2021/09/16 01:51:06;;;;;;;0.40;0.00;;;14.10;99.90;;;;;;5117227;28;20042;-88
2021/09/16 01:53:31;;;;;;;0.85;0.00;;;16.00;99.90;;;;;;5099026;28;20020;-89
2021/09/16 01:55:57;;;;;;;1.10;0.30;;;15.70;99.90;;;;;;5116833;28;20035;-88
2021/09/16 01:58:22;;;;;;;2.80;0.03;;;16.60;99.90;;;;;;5098922;28;20411;-89
2021/09/16 02:00:48;;;;;;;1.00;0.00;;;13.60;99.90;;;;;;5099298;28;20095;-89
2021/09/16 02:03:13;;;;;;;1.13;0.00;;;14.20;99.90;;;;;;5117898;28;20016;-89
2021/09/16 02:05:39;;;;;;;0.60;0.00;;;15.70;99.90;;;;;;5099982;28;20088;-87
2021/09/16 02:08:05;;;;;;;2.60;0.55;;;16.20;99.90;;;;;;5098447;28;20030;-87
2021/09/16 02:10:31;;;;;;;4.72;0.47;;;16.90;99.90;;;;;;5098607;28;20050;-87
2021/09/16 02:12:56;;;;;;;1.63;0.00;;;14.40;99.90;;;;;;5116773;28;20026;-87
2021/09/16 02:15:22;;;;;;;2.50;0.00;;;13.90;99.90;;;;;;5117395;28;20027;-87
2021/09/16 02:17:48;;;;;;;1.02;0.10;;;16.80;99.90;;;;;;5117174;28;20023;-87
2021/09/16 02:20:13;;;;;;;0.63;0.00;;;17.20;99.90;;;;;;5098274;28;20015;-88
2021/09/16 02:22:39;;;;;;;2.78;0.00;;;14.30;99.90;;;;;;5098035;28;20122;-88
2021/09/16 02:25:05;;;;;;;0.75;0.00;;;15.30;99.90;;;;;;5096786;28;20012;-87
2021/09/16 02:27:30;;;;;;;8.98;0.20;;;14.50;99.90;;;;;;5096369;28;20461;-88
2021/09/16 02:29:56;;;;;;;3.22;0.10;;;14.90;99.90;;;;;;5097150;28;20020;-87
2021/09/16 02:32:22;;;;;;;1.90;0.00;;;14.60;99.90;;;;;;5101581;28;20024;-88
2021/09/16 02:34:47;;;;;;;2.47;0.00;;;14.60;99.90;;;;;;5121923;28;20016;-89
2021/09/16 02:37:13;;;;;;;1.55;0.38;;;16.30;99.90;;;;;;5102759;28;20069;-88
2021/09/16 02:39:39;;;;;;;1.13;0.00;;;15.70;99.90;;;;;;5102786;28;20080;-89
2021/09/16 02:42:04;;;;;;;4.95;0.20;;;13.90;99.90;;;;;;5120883;28;20028;-89
2021/09/16 02:44:30;;;;;;;1.67;0.10;;;14.60;99.90;;;;;;5104185;28;20015;-89
2021/09/16 02:46:56;;;;;;;0.90;0.05;;;15.80;99.90;;;;;;5104197;28;20041;-89
2021/09/16 02:49:21;;;;;;;1.75;0.00;;;16.20;99.90;;;;;;5102720;28;20070;-89
2021/09/16 02:51:47;;;;;;;3.80;0.35;;;13.30;99.90;;;;;;5102509;28;20043;-89
2021/09/16 02:54:12;;;;;;;2.55;0.00;;;16.60;99.90;;;;;;5102327;28;20036;-90
2021/09/16 02:56:38;;;;;;;0.20;0.00;;;14.50;99.90;;;;;;5102994;28;20027;-89
2021/09/16 02:59:04;;;;;;;2.63;0.00;;;18.30;99.90;;;;;;5102757;28;20099;-89
2021/09/16 03:01:29;;;;;;;0.40;0.00;;;14.00;99.90;;;;;;5102455;28;20034;-89
2021/09/16 03:03:55;;;;;;;2.42;0.00;;;14.70;99.90;;;;;;5102246;28;20024;-89
2021/09/16 03:06:21;;;;;;;5.50;0.00;;;17.40;99.90;;;;;;5102255;28;20027;-89
2021/09/16 03:08:48;;;;;;;3.53;0.00;;;14.80;99.90;;;;;;5102527;28;20456;-89
2021/09/16 03:11:14;;;;;;;2.40;0.00;;;16.90;99.90;;;;;;5102139;28;20034;-89
2021/09/16 03:13:40;;;;;;;0.50;0.00;;;14.70;99.90;;;;;;5119870;28;20023;-89
2021/09/16 03:16:05;;;;;;;2.08;0.00;;;15.80;99.90;;;;;;5102132;28;20018;-89
2021/09/16 03:18:31;;;;;;;3.53;0.10;;;15.90;99.90;;;;;;5102481;28;20034;-89
2021/09/16 03:20:57;;;;;;;0.65;0.00;;;14.80;99.90;;;;;;5102062;28;20110;-89
2021/09/16 03:23:22;;;;;;;1.08;0.00;;;14.80;99.90;;;;;;5101912;28;20483;-89
2021/09/16 03:25:48;;;;;;;2.28;0.10;;;14.70;99.90;;;;;;5102294;28;20061;-90
2021/09/16 03:28:13;;;;;;;1.48;0.00;;;18.20;99.90;;;;;;5102013;28;20031;-89
2021/09/16 03:30:39;;;;;;;1.25;0.00;;;15.60;99.90;;;;;;5101422;28;20015;-89
2021/09/16 03:33:04;;;;;;;3.53;0.00;;;14.90;99.90;;;;;;5100876;28;20468;-89
2021/09/16 03:35:30;;;;;;;2.60;0.00;;;16.70;99.90;;;;;;5101515;28;20035;-89
2021/09/16 03:37:56;;;;;;;2.83;0.00;;;17.10;99.90;;;;;;5100872;28;20047;-89
2021/09/16 03:40:21;;;;;;;1.35;0.00;;;14.90;99.90;;;;;;5100807;28;20024;-89
2021/09/16 03:42:50;;;;;;;2.28;0.03;;;14.90;99.90;;;;;;5099426;28;20024;-89
2021/09/16 03:45:16;;;;;;;2.35;0.10;;;15.60;99.90;;;;;;5101100;28;20073;-89
2021/09/16 03:47:42;;;;;;;2.45;0.00;;;15.50;99.90;;;;;;5100981;28;20034;-89
2021/09/16 03:50:08;;;;;;;2.05;0.50;;;16.40;99.90;;;;;;5100770;28;20020;-89
2021/09/16 03:52:33;;;;;;;0.85;0.08;;;14.40;99.90;;;;;;5100166;28;20026;-89
2021/09/16 03:54:59;;;;;;;1.65;0.00;;;15.10;99.90;;;;;;5100286;28;20032;-89
2021/09/16 03:57:24;;;;;;;0.38;0.00;;;16.90;99.90;;;;;;5100988;28;20070;-89
2021/09/16 03:59:50;;;;;;;0.10;0.00;;;17.00;99.90;;;;;;5100246;28;20048;-89
2021/09/16 04:02:16;;;;;;;1.95;0.00;;;12.50;99.90;;;;;;5100414;28;20031;-89
2021/09/16 04:04:41;;;;;;;0.85;0.00;;;14.80;99.90;;;;;;5100778;28;20027;-89
2021/09/16 04:07:07;;;;;;;0.70;0.30;;;15.10;99.90;;;;;;5101168;28;20026;-89
2021/09/16 04:09:33;;;;;;;1.85;0.10;;;15.00;99.90;;;;;;5101024;28;20431;-89
2021/09/16 04:11:59;;;;;;;0.73;0.00;;;15.00;99.90;;;;;;5118991;28;20433;-89
2021/09/16 04:14:25;;;;;;;0.55;0.00;;;15.30;99.90;;;;;;5119784;28;20023;-90
2021/09/16 04:16:51;;;;;;;1.50;0.00;;;17.70;99.90;;;;;;5119050;28;20046;-89
2021/09/16 04:19:17;;;;;;;1.30;0.00;;;15.20;99.90;;;;;;5119281;28;20020;-89
2021/09/16 04:21:42;;;;;;;1.35;0.00;;;15.80;99.90;;;;;;5101290;28;20526;-89
2021/09/16 04:24:13;;;;;;;2.53;0.00;;;15.30;99.90;;;;;;5100683;28;20016;-88
2021/09/16 04:26:42;;;;;;;2.53;0.00;;;14.90;99.90;;;;;;5100452;28;20049;-88
2021/09/16 04:29:07;;;;;;;5.10;0.00;;;15.00;99.90;;;;;;5101136;28;20012;-89
2021/09/16 04:31:33;;;;;;;4.55;0.00;;;15.00;99.90;;;;;;5100075;28;20094;-89
2021/09/16 04:33:58;;;;;;;2.67;0.22;;;15.40;99.90;;;;;;5119070;28;20481;-89
2021/09/16 04:36:24;;;;;;;1.83;0.35;;;15.10;99.90;;;;;;5101641;28;20023;-89
2021/09/16 04:38:50;;;;;;;5.55;0.00;;;15.80;99.90;;;;;;5098866;28;20358;-89
2021/09/16 04:41:15;;;;;;;0.65;0.00;;;16.40;99.90;;;;;;5079634;28;20073;-90
2021/09/16 04:43:41;;;;;;;2.72;0.00;;;15.40;99.90;;;;;;5096641;28;20069;-89
2021/09/16 04:46:07;;;;;;;2.00;0.38;;;14.80;99.90;;;;;;5107807;28;20043;-89
2021/09/16 04:48:32;;;;;;;0.35;0.10;;;16.10;99.90;;;;;;5099463;28;20024;-89
2021/09/16 04:50:58;;;;;;;1.35;0.00;;;16.30;99.90;;;;;;5100525;28;20161;-89
2021/09/16 04:53:23;;;;;;;1.88;0.32;;;17.40;99.90;;;;;;5099557;28;20480;-90
2021/09/16 04:55:49;;;;;;;1.45;0.00;;;14.20;99.90;;;;;;5099024;28;20024;-89
2021/09/16 04:58:14;;;;;;;1.25;0.00;;;15.40;99.90;;;;;;5099897;28;20011;-90
2021/09/16 05:00:40;;;;;;;0.50;0.00;;;14.40;99.90;;;;;;5100006;28;20022;-90
2021/09/16 05:03:06;;;;;;;1.95;0.32;;;15.00;99.90;;;;;;5099547;28;20047;-90
2021/09/16 05:05:32;;;;;;;1.55;0.00;;;15.00;99.90;;;;;;5099697;28;20039;-89
2021/09/16 05:07:58;;;;;;;0.35;0.00;;;17.00;99.90;;;;;;5099813;28;20035;-90
2021/09/16 05:10:24;;;;;;;2.13;0.73;;;17.60;99.90;;;;;;5098978;28;20031;-89
2021/09/16 05:12:49;;;;;;;0.50;0.00;;;14.80;99.90;;;;;;5099445;28;20035;-89
2021/09/16 05:15:15;;;;;;;2.97;0.45;;;18.40;99.90;;;;;;5098359;28;20031;-90
2021/09/16 05:17:41;;;;;;;2.40;0.00;;;15.80;99.90;;;;;;5118104;28;20388;-89
2021/09/16 05:20:07;;;;;;;1.13;0.00;;;15.10;99.90;;;;;;5098404;28;20016;-89
2021/09/16 05:22:33;;;;;;;0.68;0.00;;;15.00;99.90;;;;;;5097861;28;20100;-89
2021/09/16 05:24:58;;;;;;;2.42;0.22;;;14.90;99.90;;;;;;5098947;28;20028;-90
2021/09/16 05:27:24;;;;;;;1.45;0.10;;;13.50;99.90;;;;;;5098748;28;20026;-90
2021/09/16 05:29:50;;;;;;;0.22;0.00;;;17.70;99.90;;;;;;5098916;28;20193;-89
2021/09/16 05:32:15;;;;;;;1.67;0.00;;;14.70;99.90;;;;;;5118077;28;20083;-89
2021/09/16 05:34:41;;;;;;;2.28;0.00;;;17.80;99.90;;;;;;5100169;28;20027;-89
2021/09/16 05:37:07;;;;;;;3.47;0.00;;;15.10;99.90;;;;;;5099898;28;20380;-89
2021/09/16 05:39:32;;;;;;;1.80;0.00;;;15.90;99.90;;;;;;5100136;28;20062;-89
2021/09/16 05:41:58;;;;;;;1.98;0.00;;;15.60;99.90;;;;;;5100090;28;20205;-89
2021/09/16 05:44:27;;;;;;;3.10;0.00;;;14.60;99.90;;;;;;5099247;28;20023;-89
2021/09/16 05:46:52;;;;;;;0.65;0.20;;;15.40;99.90;;;;;;5098422;28;20392;-89
2021/09/16 05:49:18;;;;;;;1.25;0.15;;;14.20;99.90;;;;;;5098209;28;20019;-89
2021/09/16 05:51:44;;;;;;;2.28;0.17;;;17.10;99.90;;;;;;5098430;28;20388;-89
2021/09/16 05:54:09;;;;;;;1.23;0.00;;;14.40;99.90;;;;;;5098290;28;20036;-89
2021/09/16 05:56:35;;;;;;;0.47;0.00;;;14.40;99.90;;;;;;5098901;28;20027;-89
2021/09/16 05:59:01;;;;;;;1.83;0.00;;;16.40;99.90;;;;;;5098131;28;20023;-90
2021/09/16 06:01:26;;;;;;;2.00;0.35;;;14.10;99.90;;;;;;5099226;28;20114;-90
2021/09/16 06:03:52;;;;;;;3.53;0.13;;;14.70;99.90;;;;;;5099194;28;20044;-89
2021/09/16 06:06:18;;;;;;;0.40;0.00;;;17.00;99.90;;;;;;5098118;28;20047;-89
2021/09/16 06:08:43;;;;;;;0.57;0.10;;;14.60;99.90;;;;;;5098629;28;20012;-89
2021/09/16 06:11:10;;;;;;;0.80;0.00;;;14.40;99.90;;;;;;5098314;28;20035;-89
2021/09/16 06:13:35;;;;;;;0.57;0.00;;;17.60;99.90;;;;;;5097832;28;20067;-89
2021/09/16 06:16:01;;;;;;;1.50;0.00;;;16.70;99.90;;;;;;5116344;28;20031;-89
2021/09/16 06:18:27;;;;;;;0.80;0.20;;;17.20;99.90;;;;;;5098550;28;20023;-89
2021/09/16 06:20:52;;;;;;;0.68;0.00;;;17.80;99.90;;;;;;5098345;28;20389;-89
2021/09/16 06:23:18;;;;;;;0.28;0.10;;;15.60;99.90;;;;;;5098567;28;20172;-89
2021/09/16 06:25:43;;;;;;;2.75;0.10;;;17.50;99.90;;;;;;5098834;28;20012;-88
2021/09/16 06:28:09;;;;;;;0.65;0.00;;;15.60;99.90;;;;;;5098538;28;20077;-88
2021/09/16 06:30:35;;;;;;;0.63;0.00;;;15.20;99.90;;;;;;5098349;28;20106;-89
2021/09/16 06:33:01;;;;;;;2.55;0.00;;;14.90;99.90;;;;;;5098172;28;20049;-88
2021/09/16 06:35:26;;;;;;;4.57;0.00;;;16.10;99.90;;;;;;5098304;28;20061;-88
2021/09/16 06:37:52;;;;;;;3.22;0.00;;;15.00;99.90;;;;;;5099279;28;20445;-88
2021/09/16 06:40:18;;;;;;;1.20;0.00;;;14.90;99.90;;;;;;5098662;28;20080;-89
2021/09/16 06:42:43;;;;;;;1.15;0.00;;;17.10;99.90;;;;;;5098060;28;20019;-89
2021/09/16 06:45:10;;;;;;;2.42;0.00;;;15.00;99.90;;;;;;5116607;28;20048;-89
2021/09/16 06:47:36;;;;;;;1.02;0.00;;;15.10;99.90;;;;;;5097895;28;20016;-89
2021/09/16 06:50:02;;;;;;;1.45;0.10;;;15.00;99.90;;;;;;5098287;28;20083;-89
2021/09/16 06:52:27;;;;;;;5.57;0.45;;;15.00;99.90;;;;;;5098182;28;20059;-89
2021/09/16 06:54:54;;;;;;;2.10;0.10;;;15.10;99.90;;;;;;5098133;28;20019;-89
2021/09/16 06:57:22;;;;;;;3.72;0.00;;;12.70;99.90;;;;;;5116393;28;20024;-89
2021/09/16 06:59:48;;;;;;;1.27;0.00;;;15.30;99.90;;;;;;5116469;28;20015;-89
2021/09/16 07:02:13;;;;;;;3.03;0.43;;;15.70;99.90;;;;;;5097269;28;20047;-88
2021/09/16 07:04:39;;;;;;;0.38;0.00;;;16.50;99.90;;;;;;5098222;28;20024;-89
2021/09/16 07:07:06;;;;;;;1.75;0.00;;;18.90;99.90;;;;;;5098309;28;20480;-89
2021/09/16 07:09:32;;;;;;;1.92;0.00;;;16.00;99.90;;;;;;5099487;28;20020;-89
2021/09/16 07:11:58;;;;;;;3.83;0.00;;;16.60;99.90;;;;;;5098488;28;20027;-89
2021/09/16 07:14:26;;;;;;;3.80;0.17;;;18.30;99.90;;;;;;5098336;28;20023;-89
2021/09/16 07:16:52;;;;;;;1.90;0.38;;;18.70;99.90;;;;;;5117211;28;20481;-89
2021/09/16 07:19:18;;;;;;;3.53;0.32;;;19.00;99.90;;;;;;5102160;28;20438;-89
2021/09/16 07:21:44;;;;;;;0.17;0.00;;;16.20;99.90;;;;;;5121379;28;20022;-88
2021/09/16 07:24:09;;;;;;;1.48;0.00;;;17.20;99.90;;;;;;5102457;28;20016;-88
2021/09/16 07:26:35;;;;;;;2.85;0.00;;;19.30;99.90;;;;;;5102308;28;20016;-88
2021/09/16 07:29:01;;;;;;;4.65;0.00;;;17.50;99.90;;;;;;5120013;28;20022;-88
2021/09/16 07:31:28;;;;;;;0.30;0.00;;;19.10;99.90;;;;;;5120025;28;20023;-88
2021/09/16 07:33:54;;;;;;;1.00;0.00;;;19.30;99.90;;;;;;5101428;28;20028;-88
2021/09/16 07:36:19;;;;;;;2.15;0.00;;;19.60;99.90;;;;;;5101766;28;20019;-88
2021/09/16 07:38:46;;;;;;;3.15;0.00;;;19.80;99.90;;;;;;5120326;28;20079;-88
2021/09/16 07:41:11;;;;;;;1.45;0.00;;;17.20;99.90;;;;;;5120088;28;20044;-88
2021/09/16 07:43:39;;;;;;;1.92;0.00;;;19.20;99.90;;;;;;5120286;28;20102;-89
2021/09/16 07:46:13;;;;;;;0.93;0.00;;;19.50;99.90;;;;;;5102018;28;20020;-88
2021/09/16 07:48:39;;;;;;;2.20;0.00;;;17.60;99.90;;;;;;5100970;28;20266;-88
2021/09/16 07:51:05;;;;;;;7.45;0.00;;;20.50;99.90;;;;;;5101044;28;20030;-88
2021/09/16 07:53:31;;;;;;;2.78;0.00;;;17.50;99.90;;;;;;5102510;28;20019;-89
2021/09/16 07:55:58;;;;;;;1.42;0.15;;;18.60;99.90;;;;;;5101536;28;20020;-88
2021/09/16 07:58:26;;;;;;;2.75;0.00;;;20.30;99.90;;;;;;5119273;28;20081;-88
2021/09/16 08:00:52;;;;;;;2.55;0.00;;;20.30;99.90;;;;;;5120180;28;20030;-88
2021/09/16 08:03:18;;;;;;;1.35;0.20;;;18.80;99.90;;;;;;5102066;28;20110;-88
2021/09/16 08:05:45;;;;;;;3.40;0.00;;;18.10;99.90;;;;;;5119588;28;20024;-88
2021/09/16 08:08:11;;;;;;;0.45;0.00;;;18.20;99.90;;;;;;5101177;28;20365;-88
2021/09/16 08:10:39;;;;;;;3.00;0.00;;;18.30;99.90;;;;;;5101152;28;20080;-88
2021/09/16 08:13:05;;;;;;;1.83;0.00;;;18.30;99.90;;;;;;5101338;28;20031;-88
2021/09/16 08:15:31;;;;;;;0.00;0.00;;;20.00;99.90;;;;;;5119502;28;20023;-90
2021/09/16 08:17:58;;;;;;;0.00;0.00;;;19.80;99.90;;;;;;5098538;28;20072;-89
2021/09/16 08:20:23;;;;;;;1.92;0.00;;;21.30;99.90;;;;;;5098157;28;20019;-90
2021/09/16 08:22:49;;;;;;;0.38;0.00;;;18.80;99.90;;;;;;5098035;28;20034;-90
2021/09/16 08:25:16;;;;;;;0.88;0.00;;;21.20;99.90;;;;;;5098365;28;20114;-89
2021/09/16 08:27:42;;;;;;;0.80;0.00;;;18.60;99.90;;;;;;5098653;28;20019;-89
2021/09/16 08:30:12;;;;;;;6.78;0.70;;;21.70;99.90;;;;;;5097495;28;20019;-90
2021/09/16 08:32:38;;;;;;;0.47;0.00;;;19.00;99.90;;;;;;5116336;28;20031;-90
2021/09/16 08:35:05;;;;;;;1.13;0.00;;;19.10;99.90;;;;;;5098237;28;20019;-90
2021/09/16 08:37:31;;;;;;;3.05;0.00;;;18.80;99.90;;;;;;5097892;28;20020;-90
2021/09/16 08:39:57;;;;;;;1.15;0.00;;;19.90;99.90;;;;;;5097678;28;20392;-89
2021/09/16 08:42:25;;;;;;;7.82;0.25;;;19.10;99.90;;;;;;5097729;28;20019;-90
2021/09/16 08:44:53;;;;;;;1.85;0.00;;;21.50;99.90;;;;;;5098206;28;20114;-90
2021/09/16 08:47:19;;;;;;;3.38;0.00;;;19.00;99.90;;;;;;5098193;28;20026;-91
2021/09/16 08:49:45;;;;;;;1.02;0.00;;;22.30;99.90;;;;;;5097936;28;20024;-89
2021/09/16 08:52:12;;;;;;;3.83;0.00;;;18.00;99.90;;;;;;5097551;28;20016;-90
2021/09/16 08:54:39;;;;;;;0.30;0.05;;;21.80;99.90;;;;;;5115803;28;20024;-90
2021/09/16 08:57:05;;;;;;;0.20;0.00;;;22.00;99.90;;;;;;5115950;28;20481;-88
2021/09/16 08:59:31;;;;;;;3.67;0.00;;;19.80;99.90;;;;;;5115963;28;20031;-89
2021/09/16 09:01:57;;;;;;;0.63;0.22;;;19.90;99.90;;;;;;5097693;28;20020;-88
2021/09/16 09:04:22;;;;;;;0.45;0.00;;;22.70;99.90;;;;;;5116385;28;20132;-88
2021/09/16 09:07:03;;;;;;;2.33;0.00;;;21.00;99.90;;;;;;5098278;28;20019;-88
2021/09/16 09:09:29;;;;;;;2.15;0.00;;;19.90;99.90;;;;;;5098538;28;20055;-87
2021/09/16 09:12:09;;;;;;;0.32;0.00;;;20.00;99.90;;;;;;5099107;28;20019;-88
2021/09/16 09:14:37;;;;;;;1.45;0.00;;;17.60;99.90;;;;;;5098206;28;20023;-88
2021/09/16 09:17:27;;;;;;;1.35;0.15;;;20.80;99.90;;;;;;5097865;28;20024;-87
2021/09/16 09:19:54;;;;;;;1.08;0.00;;;19.90;99.90;;;;;;5097438;28;20028;-87
2021/09/16 09:22:31;;;;;;;2.90;0.00;;;21.10;99.90;;;;;;5097630;28;20020;-88
2021/09/16 09:25:09;;;;;;;1.65;0.00;;;22.60;99.90;;;;;;5097737;28;20023;-88
2021/09/16 09:27:48;;;;;;;1.17;0.00;;;20.00;99.90;;;;;;5116243;28;20026;-87
2021/09/16 09:30:19;;;;;;;3.20;0.10;;;22.70;99.90;;;;;;5097845;28;20015;-88
2021/09/16 09:32:53;;;;;;;1.98;0.05;;;20.60;99.90;;;;;;5097632;28;20031;-88
2021/09/16 09:35:43;;;;;;;0.38;0.10;;;20.60;99.90;;;;;;5097644;28;20027;-88
2021/09/16 09:38:21;;;;;;;0.73;0.05;;;20.70;99.90;;;;;;5097233;28;20030;-88
2021/09/16 09:40:52;;;;;;;0.63;0.00;;;20.70;99.90;;;;;;5097500;28;20028;-87
2021/09/16 09:43:18;;;;;;;1.33;0.22;;;20.60;99.90;;;;;;5097556;28;20392;-88
2021/09/16 09:46:07;;;;;;;1.58;0.00;;;20.30;99.90;;;;;;5097994;28;20020;-88
2021/09/16 09:48:36;;;;;;;2.15;0.15;;;20.30;99.90;;;;;;5097707;28;20419;-87
2021/09/16 09:51:04;;;;;;;0.25;0.00;;;20.70;99.90;;;;;;5097861;28;20019;-87
2021/09/16 09:53:35;;;;;;;1.48;0.00;;;20.60;99.90;;;;;;5097092;28;20016;-88
2021/09/16 09:56:14;;;;;;;0.55;0.00;;;20.30;99.90;;;;;;5097906;28;20027;-88
2021/09/16 09:58:39;;;;;;;2.83;0.38;;;20.20;99.90;;;;;;5097391;28;20027;-88
2021/09/16 10:01:25;;;;;;;0.70;0.00;;;21.80;99.90;;;;;;5115897;28;20024;-88
2021/09/16 10:03:50;;;;;;;1.30;0.00;;;20.10;99.90;;;;;;5097500;28;20111;-88
2021/09/16 10:06:16;;;;;;;0.15;0.00;;;20.10;99.90;;;;;;5097173;28;20449;-87
2021/09/16 10:08:42;;;;;;;2.55;0.03;;;22.70;99.90;;;;;;5115787;28;20023;-87
2021/09/16 10:11:08;;;;;;;0.00;0.00;;;22.60;99.90;;;;;;5096750;28;20028;-89
2021/09/16 10:13:34;;;;;;;0.13;0.00;;;20.60;99.90;;;;;;5096255;28;20016;-88
2021/09/16 10:16:06;;;;;;;0.00;0.00;;;21.60;99.90;;;;;;5114667;28;20031;-89
2021/09/16 10:18:34;;;;;;;2.40;0.00;;;20.80;99.90;;;;;;5114597;28;20095;-89
2021/09/16 10:21:00;;;;;;;0.00;0.00;;;24.10;99.90;;;;;;5114758;28;20373;-89
2021/09/16 10:23:28;;;;;;;0.45;0.00;;;21.40;99.90;;;;;;5113384;28;20030;-89
2021/09/16 10:25:54;;;;;;;2.23;0.10;;;21.30;99.90;;;;;;5096452;28;20016;-89
2021/09/16 10:28:21;;;;;;;0.57;0.00;;;21.20;99.90;;;;;;5096767;28;20034;-89
2021/09/16 10:30:52;;;;;;;0.00;0.00;;;22.70;99.90;;;;;;5114358;28;20038;-89
2021/09/16 10:33:27;;;;;;;0.43;0.00;;;21.70;99.90;;;;;;5096551;28;20028;-89
2021/09/16 10:35:59;;;;;;;1.27;0.00;;;24.60;99.90;;;;;;5114696;28;20432;-90
2021/09/16 10:38:28;;;;;;;1.55;0.10;;;21.80;99.90;;;;;;5095912;28;20073;-89
2021/09/16 10:41:10;;;;;;;;;;;22.00;99.90;;;;;;5097218;28;20110;-90
2021/09/16 10:43:36;;;;;;;0.40;0.00;;;21.90;99.90;;;;;;5114529;28;20373;-90
2021/09/16 10:46:22;;;;;;;0.38;0.00;;;22.30;99.90;;;;;;5114235;28;20024;-89
2021/09/16 10:48:48;;;;;;;3.70;0.17;;;21.70;99.90;;;;;;5096247;28;20548;-90
2021/09/16 10:51:13;;;;;;;0.77;0.00;;;24.20;99.90;;;;;;5097524;28;20059;-88
2021/09/16 10:53:46;;;;;;;0.05;0.00;;;24.30;99.90;;;;;;5099514;28;20118;-88
2021/09/16 10:56:30;;;;;;;0.40;0.00;;;22.40;99.90;;;;;;5100588;28;20067;-88
2021/09/16 10:58:58;;;;;;;1.05;0.00;;;22.20;99.90;;;;;;5100855;28;20051;-88
2021/09/16 11:01:53;;;;;;;0.22;0.00;;;22.10;99.90;;;;;;5100326;28;20051;-88
2021/09/16 11:04:20;;;;;;;1.25;0.10;;;21.90;99.90;;;;;;5100989;28;20025;-88
2021/09/16 11:06:46;;;;;;;1.25;0.00;;;24.80;99.90;;;;;;5101005;28;20061;-88
2021/09/16 11:09:13;;;;;;;0.80;0.00;;;22.60;99.90;;;;;;5100648;28;20079;-89
2021/09/16 11:11:55;;;;;;;0.43;0.00;;;21.50;99.90;;;;;;5101406;28;20019;-88
2021/09/16 11:14:32;;;;;;;1.48;0.25;;;21.30;99.90;;;;;;5101604;28;20114;-88
2021/09/16 11:16:58;;;;;;;0.00;0.00;;;21.00;99.90;;;;;;5101088;28;20034;-89
2021/09/16 11:19:25;;;;;;;0.10;0.00;;;19.40;99.90;;;;;;5100320;28;20016;-89
2021/09/16 11:22:01;;;;;;;0.10;0.00;;;21.80;99.90;;;;;;5099303;28;20031;-89
2021/09/16 11:24:32;;;;;;;0.10;0.00;;;21.60;99.90;;;;;;5101956;28;20019;-90
2021/09/16 11:26:57;;;;;;;1.38;0.00;;;20.40;99.90;;;;;;5100228;28;20016;-90
2021/09/16 11:29:23;;;;;;;0.80;0.00;;;22.90;99.90;;;;;;5099470;28;20116;-89
2021/09/16 11:31:59;;;;;;;0.90;0.00;;;21.50;99.90;;;;;;5118169;28;20020;-90
2021/09/16 11:34:25;;;;;;;2.42;0.10;;;20.80;99.90;;;;;;5099316;28;20118;-90
2021/09/16 11:37:07;;;;;;;0.60;0.00;;;21.70;99.90;;;;;;5099206;28;20051;-90
2021/09/16 11:39:32;;;;;;;3.22;0.00;;;24.60;99.90;;;;;;5099328;28;20032;-90
2021/09/16 11:42:29;;;;;;;0.63;0.03;;;21.70;99.90;;;;;;5107054;28;20016;-89
2021/09/16 11:45:02;;;;;;;1.08;0.00;;;22.70;99.90;;;;;;5115736;28;20028;-89
2021/09/16 11:47:28;;;;;;;2.35;0.38;;;21.80;99.90;;;;;;5103714;28;20012;-89
2021/09/16 11:49:54;;;;;;;5.13;0.00;;;21.70;99.90;;;;;;5121284;28;20016;-89
2021/09/16 11:52:22;;;;;;;0.52;0.10;;;22.40;99.90;;;;;;5101877;28;20527;-90
2021/09/16 11:55:05;;;;;;;;;;;21.40;99.90;;;;;;5102035;28;20024;-89
2021/09/16 11:57:30;;;;;;;0.45;0.00;;;20.50;99.90;;;;;;5119325;28;19931;-89
2021/09/16 11:59:56;;;;;;;0.60;0.00;;;22.80;99.90;;;;;;5098863;28;20015;-90
2021/09/16 12:02:22;;;;;;;0.22;0.10;;;22.00;99.90;;;;;;5116934;28;20024;-89
2021/09/16 12:04:49;;;;;;;2.50;0.00;;;21.30;99.90;;;;;;5098176;28;20019;-90
2021/09/16 12:07:18;;;;;;;0.30;0.05;;;23.30;99.90;;;;;;5098979;28;20012;-90
2021/09/16 12:09:44;;;;;;;2.33;0.30;;;24.60;99.90;;;;;;5098439;28;20111;-90
2021/09/16 12:12:10;;;;;;;1.13;0.00;;;21.20;99.90;;;;;;5099280;28;20019;-89
2021/09/16 12:14:36;;;;;;;0.82;0.00;;;21.50;99.90;;;;;;5098748;28;20031;-90
2021/09/16 12:17:04;;;;;;;0.20;0.00;;;24.30;99.90;;;;;;5098758;28;20019;-90
2021/09/16 12:19:30;;;;;;;0.40;0.00;;;22.00;99.90;;;;;;5098724;28;20033;-90
2021/09/16 12:21:56;;;;;;;2.00;0.75;;;19.50;99.90;;;;;;5098956;28;20376;-89
2021/09/16 12:24:27;;;;;;;0.52;0.17;;;22.00;99.90;;;;;;5099058;28;20073;-88
2021/09/16 12:26:54;;;;;;;0.65;0.00;;;23.00;99.90;;;;;;5099704;28;20040;-88
2021/09/16 12:29:23;;;;;;;0.20;0.00;;;22.20;99.90;;;;;;5099592;28;20043;-88
2021/09/16 12:32:09;;;;;;;0.05;0.00;;;25.60;99.90;;;;;;5116224;28;20043;-88
2021/09/16 12:34:39;;;;;;;0.35;0.00;;;23.40;99.90;;;;;;5100154;28;20032;-88
2021/09/16 12:37:06;;;;;;;0.30;0.00;;;23.00;99.90;;;;;;5099250;28;20490;-88
2021/09/16 12:39:52;;;;;;;0.50;0.00;;;26.00;99.90;;;;;;5099119;28;20461;-87
2021/09/16 12:42:41;;;;;;;1.00;0.00;;;23.30;96.70;;;;;;5098542;28;20423;-90
2021/09/16 12:45:12;;;;;;;0.22;0.00;;;23.50;98.40;;;;;;5098237;28;20493;-89
2021/09/16 12:47:49;;;;;;;1.63;0.20;;;23.10;99.00;;;;;;5097912;28;20012;-89
2021/09/16 12:50:16;;;;;;;0.17;0.08;;;23.70;98.70;;;;;;5098347;28;20050;-88